Gray Army Air Field
KGRF : now visible

Airfield :











YOU CAN JOIN US ON...

 
LOGIN :

Register | Disclaimer

   EN    FR    IT 

 









Legend :    VFR   Marginal VFR   IFR   Intensive IFR   Very Intensive IFR
Visi :
Ceiling :
>= 8 km
>= 3000ft
5 to 8 km
1000 to 3000 ft
1500m to 5 km
500 to 1000 ft
800 to 1500m
200 to 500 ft
< 800m
< 200 ft
Symbols :   Thunderstorms  Fog  Heavy snow  Heavy precipitations  Wind > 20 kt







- Airport Elevation : 300 ft


KGRF - Gray Army Air Field

CURRENT METAR :
  • 210958Z AUTO 30004KT 10SM CLR 10/10 A2969 RMK AO2 SLP058 T01010099 $

EXPIRED METARs :
  • 210858Z AUTO 00000KT 10SM CLR 10/10 A2969 RMK AO2 SLP058 T01040102 55005 $
  • 210758Z AUTO 35003KT 10SM CLR 11/11 A2969 RMK AO2 SLPNO T01080106 401350106 $

TAF TAF KGRF
Valid from the 21 at 05:00 until the 22 at 11:00 UTC


210504Z 2105/2211 VRB06KT 9999 SCT008 BKN030 620709 QNH2968INS
BECMG 2117/2118 01012KT 9999 BKN050 620709 QNH2972INS
BECMG 2203/2204 VRB06KT 9999 BKN030 620709 QNH2984INS TX14/2121Z TN09/2114Z
KZSE FIR / North America



MET'MAP, your aeronautical weather chart ! - Copyright ORBIFLY December 2007 - Disclaimer

ORBIFLY MET'MAP TEAM :

Programming & Development : Alexandra Zaïnal
Concept & Development : Baudouin d'Aumeries
Co-Development & Prog : Marc-Olivier Méhu
Technical & hardware support : Manuel Goepfert

Contact : metmap@orbifly.com




SOURCES & CREDITS :

   NOAA       Earth
Advisory